Time;durP1;ratioP1;P1;durP2;ratioP2;P2;SDS_P1;SDS_P2;PMS_P1;PMS_P2;Temp;Humidity;BMP_temperature;BMP_pressure;BME280_temperature;BME280_humidity;BME280_pressure;Samples;Min_cycle;Max_cycle;Signal;HPM_P1;HPM_P2
2023/09/27 00:00:04;;;;;;;13.30;5.57;;;11.50;99.90;;;;;;4951108;28;20191;-67
2023/09/27 00:02:29;;;;;;;8.83;5.10;;;11.40;99.90;;;;;;4951870;28;20178;-67
2023/09/27 00:04:55;;;;;;;10.37;5.00;;;11.40;99.90;;;;;;4951704;28;20212;-67
2023/09/27 00:07:21;;;;;;;12.17;5.20;;;11.40;99.90;;;;;;4951819;28;20682;-68
2023/09/27 00:09:47;;;;;;;11.43;5.23;;;11.40;99.90;;;;;;4950963;28;20241;-67
2023/09/27 00:12:12;;;;;;;10.47;5.60;;;11.30;99.90;;;;;;4951844;28;20183;-67
2023/09/27 00:14:38;;;;;;;10.13;5.30;;;11.30;99.90;;;;;;4951788;28;20186;-67
2023/09/27 00:17:03;;;;;;;11.93;5.63;;;11.30;99.90;;;;;;4951478;28;20194;-67
2023/09/27 00:19:30;;;;;;;9.63;5.27;;;11.30;99.90;;;;;;4951101;28;20242;-68
2023/09/27 00:21:56;;;;;;;10.90;5.00;;;11.20;99.90;;;;;;4954094;28;20265;-67
2023/09/27 00:24:21;;;;;;;12.40;4.90;;;11.20;99.90;;;;;;4949672;28;20210;-67
2023/09/27 00:26:47;;;;;;;10.97;4.73;;;11.20;99.90;;;;;;4952936;28;20209;-67
2023/09/27 00:29:12;;;;;;;8.53;4.90;;;11.20;99.90;;;;;;4954581;28;20318;-67
2023/09/27 00:31:38;;;;;;;7.80;4.77;;;11.20;99.90;;;;;;4955015;28;20211;-67
2023/09/27 00:34:04;;;;;;;7.17;4.73;;;11.10;99.90;;;;;;4950617;28;20608;-67
2023/09/27 00:36:30;;;;;;;8.67;5.03;;;11.10;99.90;;;;;;4958532;28;20217;-67
2023/09/27 00:38:55;;;;;;;8.60;4.87;;;11.00;99.90;;;;;;4954121;28;20624;-67
2023/09/27 00:41:22;;;;;;;10.37;4.93;;;11.00;99.90;;;;;;4955072;28;20201;-67
2023/09/27 00:43:48;;;;;;;8.80;4.67;;;10.90;99.90;;;;;;4955056;28;20193;-67
2023/09/27 00:46:16;;;;;;;6.53;4.23;;;10.90;99.90;;;;;;4954974;28;20218;-67
2023/09/27 00:48:42;;;;;;;8.27;4.57;;;10.90;99.90;;;;;;4954054;28;20198;-67
2023/09/27 00:51:08;;;;;;;8.70;5.77;;;10.90;99.90;;;;;;4954915;28;20209;-68
2023/09/27 00:53:34;;;;;;;7.87;5.10;;;10.90;99.90;;;;;;4954887;28;20179;-67
2023/09/27 00:56:01;;;;;;;9.50;5.17;;;10.90;99.90;;;;;;4954711;28;20202;-67
2023/09/27 00:58:30;;;;;;;8.33;5.07;;;10.80;99.90;;;;;;4951546;28;20589;-66
2023/09/27 01:00:58;;;;;;;9.50;5.17;;;10.80;99.90;;;;;;4954561;28;20726;-67
2023/09/27 01:03:23;;;;;;;9.10;4.80;;;10.80;99.90;;;;;;4954674;28;20183;-67
2023/09/27 01:05:49;;;;;;;8.03;4.33;;;10.70;99.90;;;;;;4954391;28;20708;-68
2023/09/27 01:08:15;;;;;;;8.47;4.93;;;10.70;99.90;;;;;;4952760;28;20186;-68
2023/09/27 01:10:41;;;;;;;7.40;4.10;;;10.60;99.90;;;;;;4962352;28;20577;-68
2023/09/27 01:13:07;;;;;;;7.63;4.73;;;10.60;99.90;;;;;;4950013;28;20175;-68
2023/09/27 01:15:33;;;;;;;7.80;4.93;;;10.60;99.90;;;;;;4950110;28;20610;-68
2023/09/27 01:18:00;;;;;;;7.93;5.30;;;10.60;99.90;;;;;;4954110;28;20590;-68
2023/09/27 01:20:27;;;;;;;11.13;5.60;;;10.60;99.90;;;;;;4954006;28;20245;-68
2023/09/27 01:22:58;;;;;;;8.53;5.37;;;10.60;99.90;;;;;;4954485;28;20289;-69
2023/09/27 01:25:35;;;;;;;12.93;6.00;;;10.70;99.90;;;;;;4954387;28;20253;-68
2023/09/27 01:28:05;;;;;;;11.50;5.93;;;10.70;99.90;;;;;;4954015;28;20186;-69
2023/09/27 01:30:34;;;;;;;10.63;5.93;;;10.80;99.90;;;;;;4954054;28;20665;-69
2023/09/27 01:33:04;;;;;;;9.30;5.43;;;10.80;99.90;;;;;;4953472;28;20222;-68
2023/09/27 01:35:30;;;;;;;7.43;5.07;;;10.80;99.90;;;;;;4953364;28;20182;-68
2023/09/27 01:37:56;;;;;;;13.37;5.73;;;10.80;99.90;;;;;;4976593;28;20194;-69
2023/09/27 01:40:26;;;;;;;11.07;5.60;;;10.80;99.90;;;;;;4953544;28;20191;-68
2023/09/27 01:42:52;;;;;;;9.20;4.93;;;10.80;99.90;;;;;;4945972;29;20194;-68
2023/09/27 01:45:18;;;;;;;15.73;5.27;;;10.80;99.90;;;;;;4953899;28;20250;-68
2023/09/27 01:47:44;;;;;;;10.43;5.40;;;10.70;99.90;;;;;;4949556;28;20199;-68
2023/09/27 01:50:10;;;;;;;7.97;4.83;;;10.80;99.90;;;;;;4953120;29;20214;-68
2023/09/27 01:52:35;;;;;;;9.50;5.73;;;10.70;99.90;;;;;;4953864;28;20194;-69
2023/09/27 01:55:03;;;;;;;10.00;5.60;;;10.80;99.90;;;;;;4953476;28;20186;-69
2023/09/27 01:57:28;;;;;;;11.87;6.23;;;10.80;99.90;;;;;;4953706;28;20238;-68
2023/09/27 01:59:54;;;;;;;12.27;5.60;;;10.70;99.90;;;;;;4952864;28;20288;-68
2023/09/27 02:02:19;;;;;;;9.07;5.70;;;10.80;99.90;;;;;;4953451;28;20193;-68
2023/09/27 02:04:45;;;;;;;11.67;6.00;;;10.80;99.90;;;;;;4953418;28;20631;-68
2023/09/27 02:07:10;;;;;;;12.13;6.23;;;10.80;99.90;;;;;;4953539;28;20917;-67
2023/09/27 02:09:36;;;;;;;12.10;6.00;;;10.80;99.90;;;;;;4960160;28;20221;-68
2023/09/27 02:12:02;;;;;;;10.10;6.07;;;10.90;99.90;;;;;;4953844;28;20537;-68
2023/09/27 02:14:27;;;;;;;16.47;6.90;;;10.90;99.90;;;;;;4953421;28;20662;-68
2023/09/27 02:16:53;;;;;;;12.27;6.33;;;10.90;99.90;;;;;;4952955;28;20210;-68
2023/09/27 02:19:18;;;;;;;13.90;6.13;;;10.90;99.90;;;;;;4952693;28;20189;-68
2023/09/27 02:21:44;;;;;;;10.33;6.83;;;10.80;99.90;;;;;;4953126;28;20209;-68
2023/09/27 02:24:09;;;;;;;12.60;6.77;;;10.90;99.90;;;;;;4957142;28;20197;-68
2023/09/27 02:26:36;;;;;;;11.03;6.53;;;10.80;99.90;;;;;;4957293;28;20238;-68
2023/09/27 02:29:02;;;;;;;9.90;5.97;;;10.80;99.90;;;;;;4960269;28;20669;-68
2023/09/27 02:31:27;;;;;;;9.37;6.07;;;10.80;99.90;;;;;;4952842;28;20233;-68
2023/09/27 02:33:53;;;;;;;9.87;6.13;;;10.80;99.90;;;;;;4952915;28;20183;-68
2023/09/27 02:36:18;;;;;;;7.50;5.23;;;10.80;99.90;;;;;;4959886;28;20640;-68
2023/09/27 02:38:44;;;;;;;9.50;5.67;;;10.80;99.90;;;;;;4952132;28;20194;-68
2023/09/27 02:41:09;;;;;;;9.00;5.97;;;10.80;99.90;;;;;;4953040;28;20190;-68
2023/09/27 02:43:35;;;;;;;11.57;5.63;;;10.70;99.90;;;;;;4952129;28;20201;-68
2023/09/27 02:46:01;;;;;;;8.30;5.90;;;10.80;99.90;;;;;;4952436;28;20225;-68
2023/09/27 02:48:26;;;;;;;8.63;5.57;;;10.70;99.90;;;;;;4952155;28;20193;-67
2023/09/27 02:50:52;;;;;;;14.60;6.30;;;10.70;99.90;;;;;;4952492;29;20226;-68
2023/09/27 02:53:18;;;;;;;8.97;5.80;;;10.70;99.90;;;;;;4952738;29;20202;-68
2023/09/27 02:55:44;;;;;;;12.97;5.97;;;10.60;99.90;;;;;;4952370;28;20249;-68
2023/09/27 02:58:09;;;;;;;8.67;6.00;;;10.60;99.90;;;;;;4952050;29;20202;-67
2023/09/27 03:00:36;;;;;;;9.17;6.07;;;10.50;99.90;;;;;;4952664;28;20262;-67
2023/09/27 03:03:03;;;;;;;13.83;6.10;;;10.50;99.90;;;;;;4952365;28;20193;-68
2023/09/27 03:05:35;;;;;;;10.77;5.97;;;10.50;99.90;;;;;;4967226;28;20214;-68
2023/09/27 03:08:00;;;;;;;8.87;5.50;;;10.50;99.90;;;;;;4960216;28;20191;-68
2023/09/27 03:10:26;;;;;;;8.47;6.03;;;10.50;99.90;;;;;;4951881;29;20608;-68
2023/09/27 03:12:52;;;;;;;12.77;6.10;;;10.60;99.90;;;;;;4944401;28;20191;-68
2023/09/27 03:15:17;;;;;;;7.80;5.10;;;10.60;99.90;;;;;;4952444;28;20189;-68
2023/09/27 03:17:44;;;;;;;7.23;4.93;;;10.60;99.90;;;;;;4952010;28;20186;-68
2023/09/27 03:20:16;;;;;;;7.80;4.73;;;10.70;99.90;;;;;;4951802;28;20186;-68
2023/09/27 03:22:42;;;;;;;8.23;4.97;;;10.70;99.90;;;;;;4952271;28;20549;-68
2023/09/27 03:25:09;;;;;;;10.27;5.30;;;10.70;99.90;;;;;;4952389;28;20257;-68
2023/09/27 03:27:35;;;;;;;11.63;4.70;;;10.70;99.90;;;;;;4952193;28;20201;-68
2023/09/27 03:30:01;;;;;;;8.97;5.77;;;10.70;99.90;;;;;;4951401;28;20210;-68
2023/09/27 03:32:26;;;;;;;7.67;4.87;;;10.70;99.90;;;;;;4960132;28;20181;-68
2023/09/27 03:34:52;;;;;;;7.57;4.77;;;10.70;99.90;;;;;;4952000;28;20190;-68
2023/09/27 03:37:18;;;;;;;9.07;5.20;;;10.60;99.90;;;;;;4956806;28;20227;-68
2023/09/27 03:39:43;;;;;;;8.17;4.93;;;10.60;99.90;;;;;;4962578;28;20178;-68
2023/09/27 03:42:09;;;;;;;7.10;4.77;;;10.50;99.90;;;;;;4967694;28;20230;-68
2023/09/27 03:44:35;;;;;;;8.83;5.20;;;10.50;99.90;;;;;;4952135;28;20178;-68
2023/09/27 03:47:01;;;;;;;6.77;4.93;;;10.60;99.90;;;;;;4959655;28;20229;-68
2023/09/27 03:49:26;;;;;;;8.57;4.90;;;10.60;99.90;;;;;;4951543;28;20206;-68
2023/09/27 03:51:52;;;;;;;7.73;5.50;;;10.50;99.90;;;;;;4951683;28;20221;-68
2023/09/27 03:54:18;;;;;;;8.20;5.50;;;10.50;99.90;;;;;;4952120;28;20174;-68
2023/09/27 03:56:44;;;;;;;6.33;4.60;;;10.40;99.90;;;;;;4955515;28;20210;-68
2023/09/27 03:59:10;;;;;;;8.40;5.07;;;10.40;99.90;;;;;;4955263;28;20175;-68
2023/09/27 04:01:35;;;;;;;10.83;5.77;;;10.30;99.90;;;;;;4955692;28;20182;-68
2023/09/27 04:04:04;;;;;;;9.50;5.20;;;10.30;99.90;;;;;;4955735;28;20222;-68
2023/09/27 04:06:29;;;;;;;12.40;5.93;;;10.30;99.90;;;;;;4955747;28;20202;-68
2023/09/27 04:08:55;;;;;;;9.30;5.67;;;10.30;99.90;;;;;;4954876;28;20557;-68
2023/09/27 04:11:20;;;;;;;10.40;5.93;;;10.40;99.90;;;;;;4955598;28;20554;-68
2023/09/27 04:13:48;;;;;;;10.13;6.07;;;10.40;99.90;;;;;;4955501;28;20265;-68
2023/09/27 04:16:14;;;;;;;10.83;6.50;;;10.40;99.90;;;;;;4955383;28;20202;-68
2023/09/27 04:18:39;;;;;;;15.20;6.13;;;10.30;99.90;;;;;;4954829;28;20183;-68
2023/09/27 04:21:08;;;;;;;13.80;6.47;;;10.30;99.90;;;;;;4958495;28;20186;-68
2023/09/27 04:23:34;;;;;;;12.17;6.70;;;10.30;99.90;;;;;;4959984;28;20579;-68
2023/09/27 04:26:00;;;;;;;10.57;6.70;;;10.30;99.90;;;;;;4955147;28;20577;-68
2023/09/27 04:28:26;;;;;;;12.07;7.27;;;10.30;99.90;;;;;;4954825;28;20668;-67
2023/09/27 04:30:52;;;;;;;21.67;6.77;;;10.30;99.90;;;;;;4955204;28;20245;-68
2023/09/27 04:33:18;;;;;;;13.87;6.50;;;10.30;99.90;;;;;;4963451;28;20673;-67
2023/09/27 04:35:44;;;;;;;28.27;7.10;;;10.30;99.90;;;;;;4955154;28;20222;-68
2023/09/27 04:38:10;;;;;;;13.93;7.37;;;10.30;99.90;;;;;;4955237;28;20186;-68
2023/09/27 04:40:36;;;;;;;13.63;6.20;;;10.20;99.90;;;;;;4955142;28;20664;-68
2023/09/27 04:43:01;;;;;;;10.70;6.47;;;10.20;99.90;;;;;;4955101;28;20190;-68
2023/09/27 04:45:27;;;;;;;17.77;6.23;;;10.20;99.90;;;;;;4949055;28;20270;-68
2023/09/27 04:47:52;;;;;;;15.70;6.00;;;10.10;99.90;;;;;;4953072;28;20209;-68
2023/09/27 04:50:18;;;;;;;10.40;6.03;;;10.10;99.90;;;;;;4954747;28;20217;-67
2023/09/27 04:52:44;;;;;;;11.67;6.57;;;10.10;99.90;;;;;;4954535;28;20200;-67
2023/09/27 04:55:10;;;;;;;11.10;5.70;;;10.00;99.90;;;;;;4951473;28;20677;-68
2023/09/27 04:57:36;;;;;;;19.00;6.87;;;10.00;99.90;;;;;;4954763;28;20221;-68
2023/09/27 05:00:03;;;;;;;11.00;5.90;;;10.00;99.90;;;;;;4970213;28;20179;-68
2023/09/27 05:02:29;;;;;;;9.87;6.20;;;10.00;99.90;;;;;;4954712;28;20194;-68
2023/09/27 05:04:55;;;;;;;13.40;5.97;;;10.00;99.90;;;;;;4956464;28;20217;-68
2023/09/27 05:07:20;;;;;;;10.80;6.10;;;10.00;99.90;;;;;;4960146;28;20206;-68
2023/09/27 05:09:47;;;;;;;17.77;6.77;;;10.00;99.90;;;;;;4954004;28;20475;-68
2023/09/27 05:12:13;;;;;;;10.37;6.50;;;10.10;99.90;;;;;;4954689;28;20183;-69
2023/09/27 05:14:39;;;;;;;13.50;6.70;;;10.10;99.90;;;;;;4947114;28;20179;-68
2023/09/27 05:17:04;;;;;;;10.87;6.03;;;10.20;99.90;;;;;;4946019;28;20206;-69
2023/09/27 05:19:30;;;;;;;13.93;6.37;;;10.20;99.90;;;;;;4949242;28;20190;-67
2023/09/27 05:21:56;;;;;;;9.00;5.87;;;10.20;99.90;;;;;;4955769;28;20193;-68
2023/09/27 05:24:21;;;;;;;12.03;7.17;;;10.20;99.90;;;;;;4960799;28;20195;-67
2023/09/27 05:26:47;;;;;;;10.80;6.87;;;10.20;99.90;;;;;;4954750;28;20237;-67
2023/09/27 05:29:13;;;;;;;10.47;6.37;;;10.20;99.90;;;;;;4968455;28;20649;-67
2023/09/27 05:31:45;;;;;;;9.93;6.67;;;10.10;99.90;;;;;;4952866;28;20210;-67
2023/09/27 05:34:10;;;;;;;15.13;6.40;;;10.10;99.90;;;;;;4961419;28;20190;-67
2023/09/27 05:36:36;;;;;;;11.77;6.87;;;10.20;99.90;;;;;;4952490;28;20214;-69
2023/09/27 05:39:04;;;;;;;9.70;6.13;;;10.20;99.90;;;;;;4953473;28;20236;-69
2023/09/27 05:41:29;;;;;;;10.77;6.57;;;10.20;99.90;;;;;;4953291;28;20174;-69
2023/09/27 05:43:55;;;;;;;10.77;6.50;;;10.20;99.90;;;;;;4953146;28;20197;-68
2023/09/27 05:46:21;;;;;;;9.77;6.17;;;10.20;99.90;;;;;;4953370;28;20229;-69
2023/09/27 05:48:48;;;;;;;9.90;6.73;;;10.20;99.90;;;;;;4952530;28;20209;-68
2023/09/27 05:51:13;;;;;;;14.87;6.10;;;10.30;99.90;;;;;;4953122;28;20287;-68
2023/09/27 05:53:39;;;;;;;10.10;6.00;;;10.30;99.90;;;;;;4953208;28;20697;-68
2023/09/27 05:56:04;;;;;;;11.53;6.17;;;10.30;99.90;;;;;;4953064;28;20228;-68
2023/09/27 05:58:34;;;;;;;13.77;5.53;;;10.40;99.90;;;;;;4967079;28;20218;-68
2023/09/27 06:01:01;;;;;;;7.53;5.07;;;10.40;99.90;;;;;;4963307;28;20201;-67
2023/09/27 06:03:26;;;;;;;8.67;5.13;;;10.40;99.90;;;;;;4958497;28;20720;-67
2023/09/27 06:05:52;;;;;;;7.23;5.00;;;10.50;99.90;;;;;;4960399;28;20310;-69
2023/09/27 06:08:17;;;;;;;7.17;4.83;;;10.50;99.90;;;;;;4952309;28;20192;-69
2023/09/27 06:10:43;;;;;;;8.93;5.97;;;10.50;99.90;;;;;;4952653;28;20462;-69
2023/09/27 06:13:10;;;;;;;11.37;5.90;;;10.50;99.90;;;;;;4952817;28;20248;-69
2023/09/27 06:15:36;;;;;;;10.97;5.73;;;10.60;99.90;;;;;;4952810;28;20259;-69
2023/09/27 06:18:02;;;;;;;9.17;5.53;;;10.60;99.90;;;;;;4960152;28;20278;-69
2023/09/27 06:20:30;;;;;;;11.93;5.80;;;10.70;99.90;;;;;;4958529;28;20178;-69
2023/09/27 06:22:57;;;;;;;12.67;5.43;;;10.70;99.90;;;;;;4944314;28;20187;-69
2023/09/27 06:25:28;;;;;;;11.40;5.70;;;10.70;99.90;;;;;;4946631;28;20226;-69
2023/09/27 06:27:54;;;;;;;10.70;5.97;;;10.70;99.90;;;;;;4950743;28;20658;-69
2023/09/27 06:30:20;;;;;;;10.47;5.37;;;10.60;99.90;;;;;;4945560;28;20241;-69
2023/09/27 06:32:46;;;;;;;10.53;5.10;;;10.60;99.90;;;;;;4960348;28;20175;-69
2023/09/27 06:35:14;;;;;;;13.27;5.00;;;10.50;99.90;;;;;;4959958;28;20185;-70
2023/09/27 06:37:43;;;;;;;12.10;5.07;;;10.50;99.90;;;;;;4952108;28;20222;-69
2023/09/27 06:40:13;;;;;;;11.50;6.10;;;10.60;99.90;;;;;;4951877;28;20216;-70
2023/09/27 06:42:39;;;;;;;13.27;5.87;;;10.70;99.90;;;;;;4952044;28;20670;-69
2023/09/27 06:45:06;;;;;;;10.67;5.23;;;10.80;99.90;;;;;;4959919;28;20201;-70
2023/09/27 06:47:35;;;;;;;10.13;5.80;;;10.90;99.90;;;;;;4945768;28;20696;-69
2023/09/27 06:50:02;;;;;;;9.03;5.70;;;11.00;99.90;;;;;;4945901;28;20600;-69
2023/09/27 06:52:29;;;;;;;9.93;6.43;;;11.00;99.90;;;;;;4946980;28;20174;-69
2023/09/27 06:54:55;;;;;;;9.43;6.57;;;11.10;99.90;;;;;;4945896;28;21545;-69
2023/09/27 06:57:20;;;;;;;10.77;6.43;;;11.30;99.90;;;;;;4946335;28;20258;-69
2023/09/27 06:59:46;;;;;;;11.73;6.93;;;11.60;99.90;;;;;;4945698;28;20195;-69
2023/09/27 07:02:11;;;;;;;9.77;6.60;;;11.90;99.90;;;;;;4945834;28;20194;-69
2023/09/27 07:04:38;;;;;;;12.97;6.37;;;12.30;99.90;;;;;;4945727;28;20190;-69
2023/09/27 07:07:04;;;;;;;9.90;6.00;;;12.70;99.90;;;;;;4951168;28;20209;-69
2023/09/27 07:09:33;;;;;;;10.40;6.10;;;12.90;99.90;;;;;;4957342;28;20527;-69
2023/09/27 07:11:58;;;;;;;10.93;5.90;;;12.80;99.90;;;;;;4960770;28;20226;-66
2023/09/27 07:14:24;;;;;;;8.87;5.70;;;12.60;99.90;;;;;;4957159;28;20209;-68
2023/09/27 07:16:50;;;;;;;10.20;5.33;;;12.70;99.90;;;;;;4960397;28;20218;-69
2023/09/27 07:19:17;;;;;;;9.50;5.43;;;12.70;99.90;;;;;;4945357;28;20187;-69
2023/09/27 07:21:43;;;;;;;7.53;5.00;;;12.90;99.90;;;;;;4948359;28;20186;-69
2023/09/27 07:24:13;;;;;;;10.73;4.93;;;13.20;99.90;;;;;;4959655;28;20189;-69
2023/09/27 07:26:39;;;;;;;11.63;6.13;;;13.50;99.90;;;;;;4951526;28;20714;-68
2023/09/27 07:29:05;;;;;;;7.77;5.20;;;13.80;99.90;;;;;;4949217;28;20198;-68
2023/09/27 07:31:30;;;;;;;11.47;4.97;;;14.20;99.90;;;;;;4973976;28;20206;-68
2023/09/27 07:33:56;;;;;;;8.83;4.97;;;14.60;99.90;;;;;;4961250;28;20196;-66
2023/09/27 07:36:25;;;;;;;7.10;4.07;;;15.10;99.90;;;;;;4962714;28;20641;-67
2023/09/27 07:38:52;;;;;;;9.30;4.37;;;15.50;99.90;;;;;;4953964;28;20187;-67
2023/09/27 07:41:17;;;;;;;6.00;3.87;;;15.70;99.90;;;;;;4958371;28;20186;-68
2023/09/27 07:43:43;;;;;;;6.97;3.80;;;16.00;99.90;;;;;;4943458;28;20198;-67
2023/09/27 07:46:12;;;;;;;6.27;4.07;;;16.50;99.90;;;;;;4943436;28;20273;-67
2023/09/27 07:48:39;;;;;;;9.07;4.43;;;16.90;99.90;;;;;;4958729;28;20338;-67
2023/09/27 07:51:18;;;;;;;10.90;4.47;;;17.10;99.90;;;;;;4968276;28;20217;-67
2023/09/27 07:53:44;;;;;;;5.17;3.80;;;17.00;99.90;;;;;;4954693;28;20182;-67
2023/09/27 07:56:19;;;;;;;6.97;4.10;;;17.00;99.90;;;;;;4954539;28;20201;-67
2023/09/27 07:58:45;;;;;;;4.80;3.70;;;17.10;99.90;;;;;;4953874;28;20273;-66
2023/09/27 08:01:12;;;;;;;9.47;4.40;;;17.00;99.90;;;;;;4963408;28;20655;-67
2023/09/27 08:03:38;;;;;;;8.50;3.80;;;17.00;99.90;;;;;;4954198;28;20209;-66
2023/09/27 08:06:04;;;;;;;5.13;3.70;;;17.20;99.90;;;;;;4955294;28;20214;-67
2023/09/27 08:08:30;;;;;;;8.67;3.93;;;17.30;99.90;;;;;;4944089;28;20236;-69
2023/09/27 08:10:57;;;;;;;6.73;3.73;;;17.40;99.90;;;;;;4951562;28;20210;-67
2023/09/27 08:13:24;;;;;;;8.33;4.17;;;17.30;99.90;;;;;;4956480;28;20303;-66
2023/09/27 08:15:50;;;;;;;11.03;4.40;;;17.30;99.90;;;;;;4951206;28;20214;-69
2023/09/27 08:18:16;;;;;;;7.30;4.03;;;17.40;99.90;;;;;;4958421;28;20190;-69
2023/09/27 08:20:42;;;;;;;6.23;4.40;;;17.60;99.90;;;;;;4959284;28;20190;-69
2023/09/27 08:23:07;;;;;;;7.83;4.63;;;17.90;99.90;;;;;;4950983;28;20597;-69
2023/09/27 08:25:33;;;;;;;7.53;4.23;;;18.40;99.90;;;;;;4944574;28;20215;-69
2023/09/27 08:28:01;;;;;;;12.30;4.33;;;18.90;99.90;;;;;;4959040;28;20187;-68
2023/09/27 08:30:27;;;;;;;6.47;3.30;;;19.30;99.90;;;;;;4961721;28;20245;-67
2023/09/27 08:32:52;;;;;;;4.87;3.20;;;19.60;99.90;;;;;;4946114;28;20666;-68
2023/09/27 08:35:18;;;;;;;7.97;4.07;;;20.00;99.90;;;;;;4957851;28;20210;-69
2023/09/27 08:37:44;;;;;;;5.40;3.40;;;20.30;99.90;;;;;;4950855;28;20662;-68
2023/09/27 08:40:13;;;;;;;4.03;3.20;;;20.40;99.90;;;;;;4942415;28;20669;-68
2023/09/27 08:42:39;;;;;;;5.67;3.10;;;20.60;99.90;;;;;;4948432;28;20247;-69
2023/09/27 08:45:13;;;;;;;9.37;3.77;;;20.90;99.90;;;;;;4950963;28;20195;-68
2023/09/27 08:47:44;;;;;;;4.83;3.23;;;21.30;99.90;;;;;;4950179;28;20210;-68
2023/09/27 08:50:13;;;;;;;6.63;3.23;;;21.80;99.90;;;;;;4937634;28;20213;-69
2023/09/27 08:52:49;;;;;;;8.77;3.43;;;22.10;99.90;;;;;;4968669;28;20187;-68
2023/09/27 08:55:16;;;;;;;4.27;3.07;;;22.50;99.90;;;;;;4939177;28;20200;-68
2023/09/27 08:57:53;;;;;;;6.00;3.07;;;22.90;99.90;;;;;;4954109;28;20686;-69
2023/09/27 09:00:21;;;;;;;7.47;3.67;;;23.50;99.90;;;;;;4953809;28;20249;-66
2023/09/27 09:02:49;;;;;;;9.53;4.00;;;24.10;99.90;;;;;;4953822;28;20178;-69
2023/09/27 09:05:18;;;;;;;6.90;3.77;;;24.40;99.90;;;;;;4954188;28;20175;-67
2023/09/27 09:07:43;;;;;;;6.93;3.67;;;24.60;99.90;;;;;;4961875;28;20199;-67
2023/09/27 09:10:16;;;;;;;8.83;3.73;;;24.30;99.90;;;;;;4953240;28;20211;-68
2023/09/27 09:12:47;;;;;;;6.50;3.83;;;24.20;99.90;;;;;;4954407;28;20647;-68
2023/09/27 09:15:28;;;;;;;5.97;3.90;;;24.40;99.90;;;;;;4946215;28;20185;-67
2023/09/27 09:17:57;;;;;;;7.80;3.50;;;24.60;99.90;;;;;;4953348;28;20608;-68
2023/09/27 09:20:27;;;;;;;7.33;3.73;;;24.70;99.90;;;;;;4967483;28;20320;-67
2023/09/27 09:22:57;;;;;;;5.70;3.60;;;24.90;99.90;;;;;;4953889;28;20642;-67
2023/09/27 09:25:23;;;;;;;7.83;4.03;;;24.80;99.90;;;;;;4945739;28;20294;-67
2023/09/27 09:28:08;;;;;;;7.57;3.37;;;24.70;99.90;;;;;;4953147;28;20237;-67
2023/09/27 09:30:38;;;;;;;5.60;3.07;;;25.20;99.90;;;;;;4953514;28;20252;-67
2023/09/27 09:33:15;;;;;;;9.17;3.83;;;25.90;99.90;;;;;;4961066;28;20684;-66
2023/09/27 09:35:41;;;;;;;5.00;3.13;;;26.50;99.90;;;;;;4945524;28;20282;-66
2023/09/27 09:38:06;;;;;;;5.23;3.40;;;27.00;99.90;;;;;;4945626;28;20669;-66
2023/09/27 09:40:34;;;;;;;7.17;3.33;;;26.70;99.90;;;;;;4947959;28;20190;-65
2023/09/27 09:43:00;;;;;;;9.83;3.47;;;26.20;99.90;;;;;;4961716;28;20193;-67
2023/09/27 09:45:26;;;;;;;5.70;3.23;;;25.60;99.90;;;;;;4947352;28;20630;-67
2023/09/27 09:47:52;;;;;;;7.13;3.47;;;25.30;99.90;;;;;;4947093;28;20194;-67
2023/09/27 09:50:18;;;;;;;7.40;3.30;;;25.50;99.90;;;;;;4961536;28;20597;-67
2023/09/27 09:52:57;;;;;;;4.13;3.00;;;25.90;99.90;;;;;;4946608;28;20186;-66
2023/09/27 09:55:29;;;;;;;5.97;3.37;;;26.00;99.90;;;;;;4946628;28;20213;-66
2023/09/27 09:58:03;;;;;;;5.87;3.30;;;26.40;99.90;;;;;;4936761;28;20179;-69
2023/09/27 10:00:30;;;;;;;5.50;2.87;;;26.40;99.90;;;;;;4952876;28;20658;-69
2023/09/27 10:02:58;;;;;;;7.50;3.23;;;27.00;99.90;;;;;;4960663;28;20205;-70
2023/09/27 10:05:25;;;;;;;6.03;3.27;;;27.70;99.90;;;;;;4948219;28;20228;-68
2023/09/27 10:07:51;;;;;;;6.27;3.43;;;28.00;99.90;;;;;;4958432;28;20214;-69
2023/09/27 10:10:18;;;;;;;7.07;3.20;;;27.80;99.90;;;;;;4959332;28;20633;-70
2023/09/27 10:12:48;;;;;;;6.10;3.27;;;27.70;99.90;;;;;;4948139;28;20198;-69
2023/09/27 10:15:18;;;;;;;9.17;3.50;;;27.40;99.90;;;;;;4948974;28;20196;-69
2023/09/27 10:17:45;;;;;;;7.70;3.33;;;27.70;99.90;;;;;;4963385;28;20780;-70
2023/09/27 10:20:17;;;;;;;5.17;3.30;;;27.80;99.90;;;;;;4959312;28;20707;-69
2023/09/27 10:22:47;;;;;;;4.93;2.73;;;28.40;99.90;;;;;;4952645;28;20194;-70
2023/09/27 10:25:28;;;;;;;7.50;2.97;;;28.60;99.90;;;;;;4971151;28;20679;-70
2023/09/27 10:28:15;;;;;;;5.40;3.17;;;28.50;99.90;;;;;;4962456;28;20183;-71
2023/09/27 10:30:40;;;;;;;3.80;2.80;;;28.60;99.90;;;;;;4952368;28;20219;-70
2023/09/27 10:33:15;;;;;;;4.13;2.90;;;28.40;99.90;;;;;;4952085;28;20186;-70
2023/09/27 10:36:04;;;;;;;7.90;3.00;;;28.30;99.90;;;;;;4959241;28;20251;-69
2023/09/27 10:38:42;;;;;;;4.87;2.80;;;28.00;99.90;;;;;;4955199;28;20188;-68
2023/09/27 10:41:28;;;;;;;3.83;2.80;;;27.50;99.90;;;;;;4967427;28;20191;-68
2023/09/27 10:43:54;;;;;;;4.83;2.67;;;26.90;99.90;;;;;;4948081;28;20190;-67
2023/09/27 10:46:20;;;;;;;7.57;2.80;;;26.60;99.90;;;;;;4960035;28;20213;-69
2023/09/27 10:48:56;;;;;;;6.27;2.50;;;26.60;99.90;;;;;;4951258;28;20557;-67
2023/09/27 10:51:25;;;;;;;5.37;2.20;;;26.60;99.90;;;;;;4951882;28;20525;-68
2023/09/27 10:53:50;;;;;;;5.80;2.27;;;26.90;99.90;;;;;;4943973;28;20222;-67
2023/09/27 10:56:17;;;;;;;6.07;2.50;;;27.40;99.90;;;;;;4951863;28;20714;-69
2023/09/27 10:58:49;;;;;;;3.90;2.50;;;27.60;99.90;;;;;;4958967;28;20537;-67
2023/09/27 11:01:25;;;;;;;3.67;2.43;;;27.50;99.90;;;;;;4948075;28;20190;-68
2023/09/27 11:04:00;;;;;;;4.50;2.50;;;27.60;99.90;;;;;;4954145;28;20609;-68
2023/09/27 11:06:27;;;;;;;3.57;2.10;;;27.60;99.90;;;;;;4951360;28;20195;-68
2023/09/27 11:09:03;;;;;;;4.03;2.60;;;27.30;99.90;;;;;;4950853;28;20186;-69
2023/09/27 11:11:29;;;;;;;6.73;2.50;;;27.40;99.90;;;;;;4951617;28;20245;-68
2023/09/27 11:13:54;;;;;;;4.70;2.33;;;27.50;99.90;;;;;;4951365;28;20282;-68
2023/09/27 11:16:20;;;;;;;3.03;2.10;;;27.40;99.90;;;;;;4951267;28;20213;-67
2023/09/27 11:18:51;;;;;;;4.43;2.43;;;27.70;99.90;;;;;;4950998;28;20277;-67
2023/09/27 11:21:17;;;;;;;4.37;2.10;;;27.70;99.90;;;;;;4951462;28;20186;-68
2023/09/27 11:23:59;;;;;;;3.87;2.50;;;27.70;99.90;;;;;;4943540;29;21033;-66
2023/09/27 11:26:28;;;;;;;4.47;2.60;;;27.80;99.90;;;;;;4945121;28;20225;-66
2023/09/27 11:29:02;;;;;;;4.00;2.40;;;27.40;99.90;;;;;;4964900;28;20201;-66
2023/09/27 11:31:32;;;;;;;3.67;2.30;;;27.40;99.90;;;;;;4951383;28;20777;-67
2023/09/27 11:34:20;;;;;;;6.73;2.60;;;27.10;99.90;;;;;;4951156;28;20183;-65
2023/09/27 11:36:57;;;;;;;10.50;2.67;;;26.90;99.90;;;;;;4951220;28;20315;-66
2023/09/27 11:39:28;;;;;;;4.73;2.40;;;26.60;99.90;;;;;;4944145;28;20224;-66
2023/09/27 11:42:01;;;;;;;10.10;2.60;;;26.70;99.90;;;;;;4951094;28;20197;-67
2023/09/27 11:44:27;;;;;;;7.83;2.60;;;26.70;99.90;;;;;;4951303;28;20232;-67
2023/09/27 11:47:06;;;;;;;5.40;2.37;;;26.60;99.90;;;;;;4951278;28;20574;-66
2023/09/27 11:49:32;;;;;;;5.73;2.70;;;27.10;99.90;;;;;;4947752;28;20186;-65
2023/09/27 11:51:58;;;;;;;5.70;2.93;;;26.70;99.90;;;;;;4965632;28;20210;-65
2023/09/27 11:54:25;;;;;;;3.03;2.17;;;26.60;99.90;;;;;;4958968;28;20199;-66
2023/09/27 11:56:53;;;;;;;2.73;2.20;;;26.60;99.90;;;;;;4950889;28;20579;-66
2023/09/27 11:59:18;;;;;;;4.23;2.60;;;26.60;99.90;;;;;;4964947;28;20266;-65
2023/09/27 12:01:44;;;;;;;4.93;2.60;;;26.60;99.90;;;;;;4950874;28;20194;-67
2023/09/27 12:04:10;;;;;;;6.63;2.70;;;27.00;99.90;;;;;;4959168;28;20213;-67
2023/09/27 12:06:37;;;;;;;4.77;2.53;;;27.10;99.90;;;;;;4946346;28;20212;-70
2023/09/27 12:09:05;;;;;;;6.03;2.50;;;27.30;99.90;;;;;;4948938;29;20511;-68
2023/09/27 12:11:31;;;;;;;9.67;2.43;;;27.20;99.90;;;;;;4951134;28;20213;-67
2023/09/27 12:13:56;;;;;;;7.17;2.30;;;27.10;99.90;;;;;;4950761;28;20774;-69
2023/09/27 12:16:22;;;;;;;4.37;2.30;;;27.00;99.90;;;;;;4948007;28;20888;-66
2023/09/27 12:18:48;;;;;;;4.43;2.23;;;26.80;99.90;;;;;;4950491;28;20194;-67
2023/09/27 12:21:14;;;;;;;6.47;2.63;;;26.90;99.90;;;;;;4962735;28;20732;-67
2023/09/27 12:23:40;;;;;;;5.20;2.40;;;27.00;99.90;;;;;;4954605;28;20601;-68
2023/09/27 12:26:07;;;;;;;21.27;5.83;;;27.10;99.90;;;;;;4954412;28;20214;-66
2023/09/27 12:28:36;;;;;;;3.33;2.30;;;27.40;99.90;;;;;;4953877;28;20187;-67
2023/09/27 12:31:05;;;;;;;4.30;2.67;;;27.50;99.90;;;;;;4962439;28;20230;-69
2023/09/27 12:33:32;;;;;;;4.03;2.33;;;27.40;99.90;;;;;;4962250;28;20278;-71
2023/09/27 12:35:57;;;;;;;7.90;2.50;;;27.10;99.90;;;;;;4963410;28;20220;-70
2023/09/27 12:38:24;;;;;;;4.60;2.43;;;26.90;99.90;;;;;;4965032;28;20669;-67
2023/09/27 12:40:50;;;;;;;18.93;7.40;;;26.80;99.90;;;;;;4949263;28;20238;-70
2023/09/27 12:43:16;;;;;;;5.40;2.40;;;26.90;99.90;;;;;;4954049;29;20186;-67